Time;durP1;ratioP1;P1;durP2;ratioP2;P2;SDS_P1;SDS_P2;PMS_P1;PMS_P2;Temp;Humidity;BMP_temperature;BMP_pressure;BME280_temperature;BME280_humidity;BME280_pressure;Samples;Min_cycle;Max_cycle;Signal;HPM_P1;HPM_P2
2022/05/25 05:00:19;;;;;;;1.00;0.90;;;15.90;97.20;;;;;;1738048;28;20180;-71
2022/05/25 05:01:12;;;;;;;1.52;0.80;;;15.90;97.20;;;;;;1735688;28;20207;-72
2022/05/25 05:02:04;;;;;;;1.45;1.30;;;15.90;97.20;;;;;;1738707;28;20199;-71
2022/05/25 05:02:55;;;;;;;1.65;1.00;;;15.80;97.20;;;;;;1737471;28;20234;-71
2022/05/25 05:03:46;;;;;;;1.57;1.10;;;15.80;97.20;;;;;;1734210;28;20200;-71
2022/05/25 05:04:37;;;;;;;1.05;0.85;;;15.80;97.20;;;;;;1734241;28;20215;-72
2022/05/25 05:05:29;;;;;;;1.20;0.90;;;15.90;97.20;;;;;;1734229;28;20728;-71
2022/05/25 05:06:20;;;;;;;1.70;0.95;;;15.90;97.20;;;;;;1734293;28;20254;-71
2022/05/25 05:07:13;;;;;;;1.37;1.10;;;15.90;97.20;;;;;;1733994;28;20204;-72
2022/05/25 05:08:04;;;;;;;1.10;0.80;;;15.90;97.20;;;;;;1734089;28;20199;-71
2022/05/25 05:08:56;;;;;;;1.45;1.00;;;15.90;97.20;;;;;;1736506;28;20237;-71
2022/05/25 05:09:47;;;;;;;1.05;0.85;;;15.90;97.20;;;;;;1736557;28;20234;-71
2022/05/25 05:10:39;;;;;;;1.57;0.90;;;15.90;97.20;;;;;;1735894;28;20194;-71
2022/05/25 05:11:29;;;;;;;2.03;0.90;;;16.00;97.20;;;;;;1736874;28;20234;-72
2022/05/25 05:12:21;;;;;;;4.53;1.80;;;16.00;97.20;;;;;;1737895;28;20195;-71
2022/05/25 05:13:12;;;;;;;1.27;0.88;;;16.00;97.20;;;;;;1737924;28;20225;-72
2022/05/25 05:14:04;;;;;;;1.83;1.10;;;16.00;97.20;;;;;;1740225;28;20203;-71
2022/05/25 05:14:55;;;;;;;1.88;1.05;;;16.00;97.20;;;;;;1738850;28;20780;-72
2022/05/25 05:15:50;;;;;;;3.35;1.00;;;16.00;97.20;;;;;;1734156;28;20291;-71
2022/05/25 05:16:41;;;;;;;2.65;1.27;;;16.00;97.20;;;;;;1733947;28;20196;-72
2022/05/25 05:17:33;;;;;;;1.20;0.83;;;16.00;97.20;;;;;;1734205;28;20203;-71
2022/05/25 05:18:23;;;;;;;2.25;1.08;;;16.00;97.20;;;;;;1733970;28;20487;-71
2022/05/25 05:19:15;;;;;;;2.83;1.03;;;15.90;97.20;;;;;;1735178;28;20198;-72
2022/05/25 05:20:07;;;;;;;1.48;1.00;;;15.90;97.20;;;;;;1739407;28;20237;-71
2022/05/25 05:20:59;;;;;;;1.33;0.85;;;15.90;97.20;;;;;;1739661;28;20194;-72
2022/05/25 05:21:50;;;;;;;2.92;1.00;;;16.00;97.20;;;;;;1734318;28;20208;-71
2022/05/25 05:22:41;;;;;;;1.23;1.00;;;15.90;97.20;;;;;;1734192;28;20212;-71
2022/05/25 05:23:32;;;;;;;1.70;0.85;;;15.90;97.20;;;;;;1734225;28;20576;-71
2022/05/25 05:24:25;;;;;;;1.43;0.90;;;15.90;97.20;;;;;;1736052;28;20578;-71
2022/05/25 05:25:15;;;;;;;1.50;0.93;;;15.90;97.20;;;;;;1738275;28;20740;-70
2022/05/25 05:26:07;;;;;;;1.43;0.90;;;15.90;97.20;;;;;;1734027;28;20222;-71
2022/05/25 05:26:58;;;;;;;1.23;1.02;;;15.90;97.20;;;;;;1733739;28;20285;-71
2022/05/25 05:27:50;;;;;;;2.63;1.10;;;16.00;97.20;;;;;;1734173;28;20195;-71
2022/05/25 05:28:42;;;;;;;0.80;0.80;;;16.00;97.20;;;;;;1734059;28;20226;-71
2022/05/25 05:29:34;;;;;;;1.95;0.98;;;16.10;97.20;;;;;;1734145;28;20195;-71
2022/05/25 05:30:25;;;;;;;1.35;0.85;;;16.10;97.20;;;;;;1735068;28;20192;-71
2022/05/25 05:31:18;;;;;;;1.40;0.90;;;16.20;97.20;;;;;;1734877;28;20195;-71
2022/05/25 05:32:10;;;;;;;1.88;1.20;;;16.30;97.20;;;;;;1734175;28;20489;-71
2022/05/25 05:33:01;;;;;;;1.30;1.17;;;16.30;97.20;;;;;;1736616;28;20206;-71
2022/05/25 05:33:53;;;;;;;1.63;0.90;;;16.40;97.20;;;;;;1734026;28;20704;-71
2022/05/25 05:34:45;;;;;;;1.23;0.80;;;16.50;97.20;;;;;;1735661;28;20195;-70
2022/05/25 05:35:36;;;;;;;1.30;1.00;;;16.50;97.20;;;;;;1740924;28;20203;-71
2022/05/25 05:36:30;;;;;;;1.47;0.90;;;16.60;97.20;;;;;;1739178;28;20202;-71
2022/05/25 05:37:26;;;;;;;1.25;1.00;;;16.60;97.20;;;;;;1740607;28;20203;-71
2022/05/25 05:38:20;;;;;;;2.33;0.95;;;16.70;97.20;;;;;;1740857;28;20571;-71
2022/05/25 05:39:13;;;;;;;2.70;1.25;;;16.70;97.20;;;;;;1740918;28;20211;-71
2022/05/25 05:40:08;;;;;;;1.20;1.10;;;16.70;97.20;;;;;;1740822;28;20268;-71
2022/05/25 05:40:58;;;;;;;3.08;1.10;;;16.70;97.20;;;;;;1740843;28;20203;-71
2022/05/25 05:41:54;;;;;;;2.00;1.17;;;16.70;97.20;;;;;;1738788;28;20191;-70
2022/05/25 05:42:47;;;;;;;1.25;0.90;;;16.70;97.20;;;;;;1734030;28;20203;-71
2022/05/25 05:43:39;;;;;;;1.45;1.25;;;16.70;97.20;;;;;;1734017;28;20230;-71
2022/05/25 05:44:33;;;;;;;1.90;1.00;;;16.70;97.20;;;;;;1735619;28;20302;-71
2022/05/25 05:45:30;;;;;;;1.40;1.00;;;16.70;97.20;;;;;;1740917;28;20233;-71
2022/05/25 05:46:22;;;;;;;4.85;1.02;;;16.70;97.20;;;;;;1740775;28;20207;-71
2022/05/25 05:47:17;;;;;;;1.15;0.82;;;16.70;97.20;;;;;;1740301;28;20290;-71
2022/05/25 05:48:12;;;;;;;1.35;1.00;;;16.70;97.20;;;;;;1740969;28;20210;-71
2022/05/25 05:49:05;;;;;;;1.33;0.80;;;16.70;97.20;;;;;;1739844;28;20271;-71
2022/05/25 05:49:56;;;;;;;3.17;1.00;;;16.70;97.20;;;;;;1737647;28;20316;-71
2022/05/25 05:50:51;;;;;;;2.38;1.27;;;16.70;97.20;;;;;;1734082;28;20199;-71
2022/05/25 05:51:43;;;;;;;2.15;1.00;;;16.80;97.20;;;;;;1734193;28;20655;-71
2022/05/25 05:52:36;;;;;;;1.85;1.10;;;16.80;97.20;;;;;;1740943;28;20199;-71
2022/05/25 05:53:27;;;;;;;2.17;1.10;;;16.80;97.20;;;;;;1741004;28;20231;-70
2022/05/25 05:54:20;;;;;;;1.08;0.98;;;16.80;97.20;;;;;;1739855;28;20230;-71
2022/05/25 05:55:13;;;;;;;1.10;1.00;;;16.80;97.20;;;;;;1740445;28;20610;-71
2022/05/25 05:56:05;;;;;;;1.35;1.00;;;16.80;97.20;;;;;;1735363;28;20196;-71
2022/05/25 05:56:57;;;;;;;3.92;1.23;;;16.80;97.20;;;;;;1739369;28;20202;-71
2022/05/25 05:57:49;;;;;;;2.65;1.33;;;16.80;97.20;;;;;;1735259;28;20262;-71
2022/05/25 05:58:40;;;;;;;3.92;1.05;;;16.80;97.20;;;;;;1735366;28;20248;-71
2022/05/25 05:59:32;;;;;;;1.33;1.07;;;16.80;97.20;;;;;;1735385;28;20204;-71
2022/05/25 06:00:23;;;;;;;2.30;1.35;;;16.80;97.20;;;;;;1735386;28;20211;-71
2022/05/25 06:01:14;;;;;;;2.33;1.33;;;16.80;97.20;;;;;;1734886;28;20199;-71
2022/05/25 06:02:07;;;;;;;1.50;1.00;;;16.80;97.20;;;;;;1731116;28;20819;-70
2022/05/25 06:02:59;;;;;;;3.50;1.17;;;16.80;97.20;;;;;;1734975;28;20597;-71
2022/05/25 06:03:50;;;;;;;3.05;0.95;;;16.80;97.20;;;;;;1735672;28;20249;-71
2022/05/25 06:04:42;;;;;;;1.93;1.00;;;16.80;97.20;;;;;;1736933;28;20249;-71
2022/05/25 06:05:33;;;;;;;3.65;0.90;;;16.80;97.20;;;;;;1740065;28;20207;-70
2022/05/25 06:06:25;;;;;;;2.83;1.10;;;16.90;97.20;;;;;;1738702;28;20207;-72
2022/05/25 06:07:16;;;;;;;1.25;0.90;;;16.90;97.20;;;;;;1740979;28;20249;-71
2022/05/25 06:08:11;;;;;;;1.43;0.93;;;16.90;97.20;;;;;;1736496;28;20196;-70
2022/05/25 06:09:02;;;;;;;2.42;0.90;;;17.00;97.20;;;;;;1738301;28;20203;-71
2022/05/25 06:09:53;;;;;;;0.98;0.85;;;17.00;97.20;;;;;;1738292;28;20218;-71
2022/05/25 06:10:45;;;;;;;0.88;0.80;;;17.10;97.20;;;;;;1741167;28;20650;-71
2022/05/25 06:11:40;;;;;;;1.40;0.90;;;17.20;97.20;;;;;;1742206;28;20191;-71
2022/05/25 06:12:32;;;;;;;2.90;1.02;;;17.20;97.20;;;;;;1737470;28;20745;-70
2022/05/25 06:13:24;;;;;;;4.65;1.10;;;17.30;97.20;;;;;;1737908;28;20195;-71
2022/05/25 06:14:15;;;;;;;1.85;1.27;;;17.40;97.20;;;;;;1737928;28;20222;-71
2022/05/25 06:19:43;;;;;;;1.30;1.20;;;17.50;97.20;;;;;;1737814;28;20290;-71
2022/05/25 06:20:34;;;;;;;1.25;1.10;;;17.40;97.20;;;;;;1739465;28;20678;-71
2022/05/25 06:21:26;;;;;;;1.03;0.93;;;17.50;97.20;;;;;;1737956;28;20677;-71
2022/05/25 06:22:18;;;;;;;1.00;0.80;;;17.50;97.20;;;;;;1737911;28;20455;-71
2022/05/25 06:23:09;;;;;;;2.35;1.00;;;17.50;97.20;;;;;;1739389;28;20239;-71
2022/05/25 06:24:01;;;;;;;2.23;1.13;;;17.50;97.20;;;;;;1738554;28;20198;-71
2022/05/25 06:24:52;;;;;;;1.08;0.98;;;17.50;97.20;;;;;;1737886;28;20265;-71
2022/05/25 06:25:44;;;;;;;1.60;0.95;;;17.60;97.20;;;;;;1738826;28;20216;-71
2022/05/25 06:26:35;;;;;;;1.85;1.20;;;17.60;97.20;;;;;;1739042;28;20232;-71
2022/05/25 06:27:26;;;;;;;1.20;1.10;;;17.60;97.20;;;;;;1738039;28;20194;-71
2022/05/25 06:28:17;;;;;;;2.63;1.17;;;17.70;97.20;;;;;;1737607;28;20659;-71
2022/05/25 06:29:09;;;;;;;1.47;0.73;;;17.70;97.20;;;;;;1737886;28;20214;-71
2022/05/25 06:29:59;;;;;;;2.45;1.00;;;17.70;97.20;;;;;;1738267;28;20192;-71
2022/05/25 06:30:52;;;;;;;1.60;1.00;;;17.80;97.20;;;;;;1738948;28;20197;-71
2022/05/25 06:31:43;;;;;;;1.48;1.00;;;17.80;97.20;;;;;;1736833;28;20302;-71
2022/05/25 06:32:38;;;;;;;1.20;0.90;;;17.90;97.20;;;;;;1739695;28;20297;-71
2022/05/25 06:33:29;;;;;;;2.03;1.05;;;17.90;97.20;;;;;;1736135;28;20223;-72
2022/05/25 06:34:20;;;;;;;3.47;1.07;;;18.00;97.20;;;;;;1738784;28;20291;-71
2022/05/25 06:35:11;;;;;;;1.20;0.88;;;18.00;97.20;;;;;;1737185;28;20192;-71
2022/05/25 06:36:12;;;;;;;1.20;1.03;;;18.10;97.20;;;;;;1738473;28;20198;-71
2022/05/25 06:37:04;;;;;;;1.58;1.00;;;18.10;97.20;;;;;;1737955;28;20791;-71
2022/05/25 06:37:56;;;;;;;2.38;1.10;;;18.20;97.20;;;;;;1737670;28;20192;-71
2022/05/25 06:38:47;;;;;;;1.40;1.30;;;18.30;97.20;;;;;;1737530;28;20230;-71
2022/05/25 06:39:39;;;;;;;1.10;0.80;;;18.30;97.20;;;;;;1740513;28;20191;-71
2022/05/25 06:40:30;;;;;;;1.70;1.05;;;18.30;97.20;;;;;;1740510;28;20231;-71
2022/05/25 06:41:23;;;;;;;1.88;0.85;;;18.30;97.20;;;;;;1735106;28;20570;-70
2022/05/25 06:42:15;;;;;;;1.70;0.80;;;18.40;97.20;;;;;;1739857;28;20560;-70
2022/05/25 06:43:06;;;;;;;1.73;0.90;;;18.40;97.20;;;;;;1741953;28;20211;-70
2022/05/25 06:43:57;;;;;;;2.20;1.00;;;18.50;97.20;;;;;;1741923;28;20281;-70
2022/05/25 06:44:48;;;;;;;3.55;1.10;;;18.50;97.20;;;;;;1741944;28;20706;-70
2022/05/25 06:45:40;;;;;;;1.30;1.13;;;18.50;97.20;;;;;;1741966;28;20562;-70
2022/05/25 06:46:31;;;;;;;1.13;1.00;;;18.50;97.20;;;;;;1741951;28;20475;-70
2022/05/25 06:47:22;;;;;;;1.40;0.87;;;18.50;97.20;;;;;;1741783;28;20203;-70
2022/05/25 06:48:14;;;;;;;2.00;0.90;;;18.50;97.20;;;;;;1741847;28;20243;-70
2022/05/25 06:49:06;;;;;;;1.20;0.90;;;18.50;97.20;;;;;;1742013;28;20205;-70
2022/05/25 06:49:57;;;;;;;3.92;1.00;;;18.50;97.20;;;;;;1741903;28;20199;-70
2022/05/25 06:50:49;;;;;;;1.93;1.10;;;18.50;97.20;;;;;;1741565;28;20194;-70
2022/05/25 06:51:39;;;;;;;2.30;0.90;;;18.50;97.20;;;;;;1736321;28;20200;-70
2022/05/25 06:52:31;;;;;;;1.37;0.80;;;18.50;97.20;;;;;;1735223;28;20206;-70
2022/05/25 06:53:22;;;;;;;3.88;1.17;;;18.40;97.20;;;;;;1734833;28;20235;-70
2022/05/25 06:54:14;;;;;;;2.20;1.13;;;18.40;97.20;;;;;;1734985;28;20238;-70
2022/05/25 06:55:06;;;;;;;1.63;0.80;;;18.40;97.20;;;;;;1735140;28;20200;-70
2022/05/25 06:55:57;;;;;;;1.70;1.05;;;18.30;97.20;;;;;;1734965;28;20227;-70
2022/05/25 06:56:50;;;;;;;1.10;1.00;;;18.30;97.20;;;;;;1734837;28;20211;-71
2022/05/25 06:57:42;;;;;;;2.20;1.15;;;18.20;97.20;;;;;;1734788;28;20283;-71
2022/05/25 06:58:35;;;;;;;1.75;1.30;;;18.10;97.20;;;;;;1735023;28;20231;-70
2022/05/25 06:59:26;;;;;;;2.10;0.88;;;18.00;97.20;;;;;;1735043;28;20567;-70
2022/05/25 07:00:18;;;;;;;3.07;1.10;;;17.90;97.20;;;;;;1735126;28;20222;-71
2022/05/25 07:01:09;;;;;;;1.90;1.10;;;17.90;97.20;;;;;;1740907;28;20200;-72
2022/05/25 07:02:01;;;;;;;3.00;1.00;;;17.80;97.20;;;;;;1741831;28;20680;-70
2022/05/25 07:02:51;;;;;;;2.72;1.38;;;17.70;97.20;;;;;;1741848;28;20477;-70
2022/05/25 07:03:45;;;;;;;2.53;1.20;;;17.70;97.20;;;;;;1740249;28;20198;-70
2022/05/25 07:04:36;;;;;;;1.27;1.10;;;17.70;97.20;;;;;;1737703;28;20258;-71
2022/05/25 07:05:27;;;;;;;1.25;0.90;;;17.70;97.20;;;;;;1736691;28;20578;-71
2022/05/25 07:06:21;;;;;;;1.47;1.00;;;17.70;97.20;;;;;;1737242;28;20288;-71
2022/05/25 07:07:11;;;;;;;1.45;1.00;;;17.70;97.20;;;;;;1740990;28;20821;-71
2022/05/25 07:08:03;;;;;;;2.23;1.30;;;17.60;97.20;;;;;;1740874;28;20196;-70
2022/05/25 07:08:54;;;;;;;2.88;1.00;;;17.70;97.20;;;;;;1740629;28;20207;-70
2022/05/25 07:09:46;;;;;;;1.13;1.00;;;17.70;97.20;;;;;;1739799;28;20210;-69
2022/05/25 07:10:37;;;;;;;1.92;1.20;;;17.70;97.20;;;;;;1735385;28;20439;-69
2022/05/25 07:11:28;;;;;;;2.43;1.17;;;17.70;97.20;;;;;;1734811;28;20195;-70
2022/05/25 07:12:19;;;;;;;2.10;1.00;;;17.70;97.20;;;;;;1734895;28;20234;-71
2022/05/25 07:13:11;;;;;;;1.47;1.20;;;17.70;97.20;;;;;;1735027;28;20211;-71
2022/05/25 07:14:02;;;;;;;2.58;1.30;;;17.70;97.20;;;;;;1734816;28;20252;-71
2022/05/25 07:14:54;;;;;;;2.35;1.10;;;17.70;97.20;;;;;;1734944;28;20746;-71
2022/05/25 07:15:45;;;;;;;2.65;1.20;;;17.70;97.20;;;;;;1734960;28;20608;-71
2022/05/25 07:16:37;;;;;;;3.47;1.37;;;17.70;97.20;;;;;;1734657;28;20196;-71
2022/05/25 07:17:27;;;;;;;1.73;1.10;;;17.70;97.20;;;;;;1737892;28;20195;-71
2022/05/25 07:18:19;;;;;;;1.20;1.10;;;17.70;97.20;;;;;;1741707;28;20210;-71
2022/05/25 07:19:12;;;;;;;2.40;1.10;;;17.80;97.20;;;;;;1735763;28;20200;-71
2022/05/25 07:20:06;;;;;;;2.38;1.17;;;17.90;97.20;;;;;;1736886;28;20295;-70
2022/05/25 07:21:00;;;;;;;3.72;1.73;;;17.90;97.20;;;;;;1734909;28;20261;-71
2022/05/25 07:21:50;;;;;;;1.95;1.15;;;18.00;97.20;;;;;;1734878;28;20200;-72
2022/05/25 07:22:42;;;;;;;1.30;0.90;;;18.00;97.20;;;;;;1734783;28;20283;-70
2022/05/25 07:23:33;;;;;;;1.80;1.30;;;18.00;97.20;;;;;;1734904;28;20203;-71
2022/05/25 07:24:25;;;;;;;2.22;1.30;;;18.10;97.20;;;;;;1734807;28;20222;-71
2022/05/25 07:25:16;;;;;;;3.05;1.98;;;18.10;97.20;;;;;;1734811;28;20259;-72
2022/05/25 07:26:09;;;;;;;1.20;1.10;;;18.10;97.20;;;;;;1734854;28;20218;-72
2022/05/25 07:27:00;;;;;;;3.30;1.00;;;18.20;97.20;;;;;;1734496;28;20645;-72
2022/05/25 07:27:51;;;;;;;1.77;0.95;;;18.20;97.20;;;;;;1734746;28;20195;-72
2022/05/25 07:28:43;;;;;;;1.60;0.90;;;18.20;97.20;;;;;;1734828;28;20196;-72
2022/05/25 07:29:35;;;;;;;1.77;1.27;;;18.10;97.20;;;;;;1736372;28;20234;-72
2022/05/25 07:30:28;;;;;;;2.45;1.10;;;18.10;97.20;;;;;;1740713;28;20250;-72
2022/05/25 07:31:24;;;;;;;1.90;1.30;;;18.10;97.20;;;;;;1734762;28;20199;-73
2022/05/25 07:32:15;;;;;;;2.05;1.10;;;18.20;97.20;;;;;;1734953;28;20215;-72
2022/05/25 07:33:07;;;;;;;1.42;1.33;;;18.20;97.20;;;;;;1741527;28;20198;-72
2022/05/25 07:34:01;;;;;;;2.90;1.17;;;18.30;97.20;;;;;;1741586;28;20199;-73
2022/05/25 07:34:59;;;;;;;2.85;1.10;;;18.30;97.20;;;;;;1741727;28;20302;-72
2022/05/25 07:35:49;;;;;;;3.00;0.95;;;18.30;97.20;;;;;;1741648;28;20210;-72
2022/05/25 07:36:44;;;;;;;1.80;1.07;;;18.40;97.20;;;;;;1738592;28;20213;-71
2022/05/25 07:37:38;;;;;;;4.57;1.10;;;18.40;97.20;;;;;;1736141;28;20196;-72
2022/05/25 07:38:31;;;;;;;1.83;1.33;;;18.50;97.20;;;;;;1734090;28;20575;-72
2022/05/25 07:39:26;;;;;;;4.45;1.35;;;18.50;97.20;;;;;;1734219;28;20294;-71
2022/05/25 07:40:21;;;;;;;2.30;1.20;;;18.60;97.20;;;;;;1734027;28;20246;-71
2022/05/25 07:41:13;;;;;;;4.32;1.00;;;18.70;97.20;;;;;;1734102;28;20730;-71
2022/05/25 07:42:05;;;;;;;2.10;1.20;;;18.70;97.20;;;;;;1734027;28;20204;-72
2022/05/25 07:43:02;;;;;;;0.90;0.80;;;18.80;97.20;;;;;;1734060;28;20234;-72
2022/05/25 07:43:57;;;;;;;2.13;1.10;;;18.90;97.20;;;;;;1734079;28;20247;-72
2022/05/25 07:44:52;;;;;;;1.95;1.73;;;19.00;97.20;;;;;;1731283;28;20204;-71
2022/05/25 07:45:45;;;;;;;3.78;1.10;;;19.20;97.20;;;;;;1735909;28;20238;-71
2022/05/25 07:46:37;;;;;;;1.85;1.10;;;19.40;97.20;;;;;;1729843;28;20204;-71
2022/05/25 07:47:30;;;;;;;2.10;1.10;;;19.50;97.20;;;;;;1736766;28;20690;-72
2022/05/25 07:48:22;;;;;;;2.55;1.20;;;19.70;97.20;;;;;;1739326;28;20207;-72
2022/05/25 07:49:12;;;;;;;1.42;1.05;;;19.90;97.20;;;;;;1737350;28;20631;-72
2022/05/25 07:50:07;;;;;;;2.40;1.13;;;20.10;97.20;;;;;;1735162;28;20192;-72
2022/05/25 07:50:59;;;;;;;3.42;1.30;;;20.30;97.20;;;;;;1737330;28;20471;-72
2022/05/25 07:51:51;;;;;;;1.70;0.95;;;20.50;97.20;;;;;;1738036;28;20203;-72
2022/05/25 07:52:42;;;;;;;1.67;1.10;;;20.60;97.20;;;;;;1734736;28;20227;-72
2022/05/25 07:54:44;;;;;;;2.50;1.05;;;20.80;97.20;;;;;;1736968;28;20513;-71
2022/05/25 07:55:35;;;;;;;1.80;1.02;;;21.00;97.20;;;;;;1737771;28;20235;-72
2022/05/25 07:56:29;;;;;;;1.33;0.80;;;21.10;97.20;;;;;;1737729;28;20805;-72
2022/05/25 07:57:21;;;;;;;1.52;1.00;;;21.10;97.20;;;;;;1737492;28;20215;-72
2022/05/25 07:58:11;;;;;;;4.60;1.05;;;21.10;97.20;;;;;;1737709;28;20216;-72
2022/05/25 07:59:06;;;;;;;3.93;1.07;;;21.20;97.20;;;;;;1736857;28;20204;-72
2022/05/25 07:59:56;;;;;;;2.35;0.85;;;21.30;97.20;;;;;;1737714;28;20232;-71
2022/05/25 08:00:49;;;;;;;2.30;1.20;;;21.40;97.20;;;;;;1737692;28;20203;-72
2022/05/25 08:06:28;;;;;;;1.13;0.88;;;21.80;97.20;;;;;;1737795;28;20231;-72
2022/05/25 08:07:20;;;;;;;1.38;0.90;;;21.90;97.20;;;;;;1737417;28;20219;-71
2022/05/25 08:08:14;;;;;;;1.48;0.90;;;22.00;97.20;;;;;;1737706;28;20284;-71
2022/05/25 08:09:05;;;;;;;1.15;0.95;;;22.10;97.20;;;;;;1737030;28;20294;-72
2022/05/25 08:10:03;;;;;;;1.27;1.17;;;22.20;97.20;;;;;;1737692;28;20207;-72
2022/05/25 08:10:58;;;;;;;2.08;1.00;;;22.30;97.20;;;;;;1737698;28;20227;-72
2022/05/25 08:11:49;;;;;;;1.20;0.88;;;22.40;97.20;;;;;;1737804;28;20246;-72
2022/05/25 08:12:42;;;;;;;1.40;0.90;;;22.40;97.20;;;;;;1737657;28;20215;-72
2022/05/25 08:13:34;;;;;;;1.40;0.90;;;22.40;97.20;;;;;;1737743;28;20273;-71
2022/05/25 08:14:29;;;;;;;1.60;1.13;;;22.30;97.20;;;;;;1737602;28;20277;-71
2022/05/25 08:15:20;;;;;;;1.50;1.00;;;22.20;97.20;;;;;;1737611;28;20203;-72
2022/05/25 08:16:12;;;;;;;3.30;1.58;;;22.10;97.20;;;;;;1737646;28;20204;-71
2022/05/25 08:17:06;;;;;;;2.85;1.20;;;22.10;97.20;;;;;;1737209;28;20214;-71
2022/05/25 08:17:58;;;;;;;1.42;1.15;;;22.00;97.20;;;;;;1736896;28;20239;-71
2022/05/25 08:18:49;;;;;;;1.83;0.95;;;22.00;97.20;;;;;;1737159;28;20212;-71
2022/05/25 08:19:41;;;;;;;2.00;0.90;;;22.00;97.20;;;;;;1737517;28;20300;-72
2022/05/25 08:20:33;;;;;;;3.38;0.80;;;22.00;97.20;;;;;;1737726;28;20215;-71
2022/05/25 08:21:24;;;;;;;2.75;0.80;;;22.00;97.20;;;;;;1737514;28;20732;-72
2022/05/25 08:22:15;;;;;;;4.55;1.27;;;22.10;97.20;;;;;;1737691;28;20253;-72
2022/05/25 08:23:08;;;;;;;1.93;1.00;;;22.20;97.20;;;;;;1737517;28;20207;-72
2022/05/25 08:23:59;;;;;;;1.02;0.80;;;22.30;97.20;;;;;;1737400;28;20203;-72
2022/05/25 08:24:51;;;;;;;5.30;1.20;;;22.40;97.20;;;;;;1737603;28;20298;-72
2022/05/25 08:25:42;;;;;;;2.05;1.17;;;22.50;97.20;;;;;;1737414;28;20266;-71
2022/05/25 08:26:34;;;;;;;3.00;0.90;;;22.60;97.20;;;;;;1737204;28;20679;-72
2022/05/25 08:27:26;;;;;;;3.70;1.15;;;22.70;97.20;;;;;;1737478;28;20208;-72
2022/05/25 08:28:16;;;;;;;2.38;1.10;;;22.80;97.20;;;;;;1737474;28;20252;-72
2022/05/25 08:29:08;;;;;;;1.80;0.93;;;22.80;97.20;;;;;;1737281;28;20203;-71
2022/05/25 08:29:59;;;;;;;1.67;0.90;;;22.80;97.20;;;;;;1737551;28;20204;-71
2022/05/25 08:30:51;;;;;;;2.27;0.83;;;22.80;97.20;;;;;;1737588;28;20294;-72
2022/05/25 08:31:41;;;;;;;2.17;1.45;;;22.70;97.20;;;;;;1737380;28;20524;-72
2022/05/25 08:32:33;;;;;;;2.33;1.40;;;22.70;97.20;;;;;;1737539;28;20208;-72
2022/05/25 08:33:25;;;;;;;2.92;1.67;;;22.70;97.20;;;;;;1737516;28;20208;-72
2022/05/25 08:34:17;;;;;;;1.45;1.00;;;22.70;97.20;;;;;;1737578;28;20215;-72
2022/05/25 08:35:10;;;;;;;4.38;3.72;;;22.60;97.20;;;;;;1737367;28;20218;-72
2022/05/25 08:36:02;;;;;;;4.30;2.40;;;22.60;97.20;;;;;;1737290;28;20215;-72
2022/05/25 08:36:54;;;;;;;2.47;2.00;;;22.70;97.20;;;;;;1737212;28;20215;-72
2022/05/25 08:37:46;;;;;;;2.38;1.30;;;22.80;97.20;;;;;;1737547;28;20658;-72
2022/05/25 08:38:37;;;;;;;2.72;1.25;;;22.80;97.20;;;;;;1737109;28;20203;-72
2022/05/25 08:39:28;;;;;;;1.50;1.20;;;22.80;97.20;;;;;;1737537;28;20211;-72
2022/05/25 08:40:23;;;;;;;2.30;1.40;;;22.70;97.20;;;;;;1737501;28;20211;-72
2022/05/25 08:41:14;;;;;;;2.53;1.00;;;22.60;97.20;;;;;;1737378;28;20476;-71
2022/05/25 08:42:09;;;;;;;3.63;2.05;;;22.60;97.20;;;;;;1737798;28;20717;-72
2022/05/25 08:43:04;;;;;;;2.60;2.17;;;22.50;97.20;;;;;;1737325;28;20211;-72
2022/05/25 08:43:56;;;;;;;3.08;1.70;;;22.50;97.20;;;;;;1737391;28;20218;-72
2022/05/25 08:44:50;;;;;;;4.78;1.40;;;22.50;97.20;;;;;;1737391;28;20208;-72
2022/05/25 08:45:44;;;;;;;1.60;0.93;;;22.50;97.20;;;;;;1737391;28;20267;-72
2022/05/25 08:46:36;;;;;;;3.50;1.10;;;22.40;97.20;;;;;;1737063;28;20216;-72
2022/05/25 08:47:26;;;;;;;2.95;1.52;;;22.20;97.20;;;;;;1737492;28;20250;-72
2022/05/25 08:48:20;;;;;;;2.90;1.77;;;22.10;97.20;;;;;;1737361;28;20204;-72
2022/05/25 08:49:13;;;;;;;3.25;1.20;;;22.00;97.20;;;;;;1737432;28;20485;-72
2022/05/25 08:50:06;;;;;;;1.95;1.00;;;21.90;97.20;;;;;;1737407;28;20231;-71
2022/05/25 08:51:02;;;;;;;2.53;1.30;;;21.90;97.20;;;;;;1737231;28;20219;-72
2022/05/25 08:51:58;;;;;;;2.85;1.00;;;21.90;97.20;;;;;;1737480;28;20210;-72
2022/05/25 08:52:49;;;;;;;3.83;0.95;;;21.90;97.20;;;;;;1737436;28;20208;-72
2022/05/25 08:53:41;;;;;;;1.13;0.80;;;21.90;97.20;;;;;;1737324;28;20200;-72
2022/05/25 08:54:35;;;;;;;2.85;1.00;;;21.80;97.20;;;;;;1736793;28;20473;-72
2022/05/25 08:55:41;;;;;;;2.38;0.93;;;21.70;97.20;;;;;;1736710;28;20208;-72
2022/05/25 08:56:39;;;;;;;1.27;0.82;;;21.60;97.20;;;;;;1736513;28;20217;-70
2022/05/25 08:57:33;;;;;;;1.98;1.30;;;21.50;97.20;;;;;;1736847;28;20208;-72
2022/05/25 08:58:30;;;;;;;2.80;1.20;;;21.40;97.20;;;;;;1736584;28;20212;-72
2022/05/25 08:59:25;;;;;;;1.48;0.90;;;21.40;97.20;;;;;;1736664;28;20418;-71
2022/05/25 09:00:19;;;;;;;2.67;1.13;;;21.30;97.20;;;;;;1737318;28;20250;-72
2022/05/25 09:01:14;;;;;;;1.05;0.93;;;21.30;97.20;;;;;;1737345;28;20212;-71
2022/05/25 09:02:15;;;;;;;1.52;1.25;;;21.30;97.20;;;;;;1737060;28;20200;-72
2022/05/25 09:03:15;;;;;;;2.58;1.73;;;21.30;97.20;;;;;;1737359;28;20204;-72
2022/05/25 09:04:20;;;;;;;1.70;1.15;;;21.30;97.20;;;;;;1737076;28;20210;-72
2022/05/25 09:05:18;;;;;;;5.15;2.13;;;21.30;97.20;;;;;;1737370;28;20671;-71
2022/05/25 09:06:16;;;;;;;2.30;1.60;;;21.30;97.20;;;;;;1737394;28;20627;-71
2022/05/25 09:07:14;;;;;;;3.25;2.95;;;21.40;97.20;;;;;;1737193;28;20600;-71
2022/05/25 09:08:14;;;;;;;3.00;1.08;;;21.50;97.20;;;;;;1737079;28;20212;-72
2022/05/25 09:09:12;;;;;;;2.42;0.80;;;21.50;97.20;;;;;;1736921;28;20265;-71
2022/05/25 09:10:05;;;;;;;1.90;1.08;;;21.60;97.20;;;;;;1737707;28;20287;-72
2022/05/25 09:10:59;;;;;;;2.28;0.90;;;21.70;97.20;;;;;;1737512;28;20210;-72
2022/05/25 09:11:55;;;;;;;4.57;1.00;;;21.70;97.20;;;;;;1737471;28;20666;-72
2022/05/25 09:12:51;;;;;;;1.90;1.02;;;21.90;97.20;;;;;;1737378;28;20295;-72
2022/05/25 09:13:50;;;;;;;2.75;0.90;;;21.90;97.20;;;;;;1737390;28;20200;-72
2022/05/25 09:14:46;;;;;;;1.38;1.15;;;22.00;97.20;;;;;;1737223;28;20235;-72
2022/05/25 09:16:53;;;;;;;3.75;1.10;;;22.00;97.20;;;;;;1737506;28;20698;-72
2022/05/25 09:17:47;;;;;;;1.17;0.85;;;22.00;97.20;;;;;;1737386;28;20207;-72
2022/05/25 09:18:44;;;;;;;4.05;1.20;;;22.00;97.20;;;;;;1737294;28;20604;-72
2022/05/25 09:19:38;;;;;;;1.50;0.95;;;22.00;97.20;;;;;;1736855;28;20215;-71
2022/05/25 09:20:35;;;;;;;1.98;0.90;;;21.90;97.20;;;;;;1736575;28;20675;-72
2022/05/25 09:21:30;;;;;;;1.08;0.90;;;21.90;97.20;;;;;;1736615;28;20204;-72
2022/05/25 09:22:25;;;;;;;1.20;0.70;;;21.90;97.20;;;;;;1736798;28;20212;-72
2022/05/25 09:23:18;;;;;;;1.40;1.00;;;22.00;97.20;;;;;;1736505;28;20218;-71
2022/05/25 09:24:14;;;;;;;1.38;1.10;;;22.00;97.20;;;;;;1737098;28;20716;-72
2022/05/25 09:25:07;;;;;;;1.63;1.10;;;22.10;97.20;;;;;;1737295;28;20219;-70
2022/05/25 09:25:58;;;;;;;0.95;0.82;;;22.00;97.20;;;;;;1736604;28;20733;-72
2022/05/25 09:26:51;;;;;;;4.82;0.85;;;22.00;97.20;;;;;;1736968;28;20294;-72
2022/05/25 09:27:45;;;;;;;1.77;0.85;;;22.00;97.20;;;;;;1736381;28;20210;-71
2022/05/25 09:28:42;;;;;;;1.48;0.88;;;22.00;97.20;;;;;;1736452;28;20218;-72
2022/05/25 09:29:34;;;;;;;1.50;0.90;;;22.00;97.20;;;;;;1737266;28;20282;-71
2022/05/25 09:30:26;;;;;;;1.10;1.00;;;22.00;97.20;;;;;;1736823;28;20497;-72
2022/05/25 09:31:25;;;;;;;2.08;0.90;;;22.00;97.20;;;;;;1737182;28;20682;-72
2022/05/25 09:32:34;;;;;;;2.17;0.73;;;22.10;97.20;;;;;;1737280;28;20598;-72
2022/05/25 09:33:33;;;;;;;1.98;0.95;;;22.20;97.20;;;;;;1737246;28;20659;-72
2022/05/25 09:34:35;;;;;;;2.40;0.98;;;22.20;97.20;;;;;;1737123;28;20231;-72
2022/05/25 09:35:32;;;;;;;1.73;1.00;;;22.20;97.20;;;;;;1736745;28;20219;-72
2022/05/25 09:36:29;;;;;;;3.00;1.02;;;22.30;97.20;;;;;;1737092;28;20250;-72
2022/05/25 09:37:31;;;;;;;2.60;0.82;;;22.30;97.20;;;;;;1736903;28;20671;-72
2022/05/25 09:38:34;;;;;;;1.63;1.08;;;22.40;97.20;;;;;;1737209;28;20231;-72
2022/05/25 09:39:32;;;;;;;2.55;0.77;;;22.40;97.20;;;;;;1737318;28;20580;-72
2022/05/25 09:40:31;;;;;;;3.08;0.95;;;22.50;97.20;;;;;;1737197;28;20211;-72
2022/05/25 09:41:24;;;;;;;1.00;0.90;;;22.60;97.20;;;;;;1737178;28;20223;-72
2022/05/25 09:42:21;;;;;;;2.55;1.10;;;22.60;97.20;;;;;;1737203;28;20208;-72
2022/05/25 09:43:18;;;;;;;1.20;1.05;;;22.60;97.20;;;;;;1737352;28;20222;-72
2022/05/25 09:44:11;;;;;;;1.73;1.00;;;22.60;97.20;;;;;;1737147;28;20243;-72
2022/05/25 09:45:10;;;;;;;1.10;0.90;;;22.60;97.20;;;;;;1737136;28;20200;-71
2022/05/25 09:46:07;;;;;;;2.50;1.05;;;22.60;97.20;;;;;;1737003;28;20232;-71
2022/05/25 09:47:02;;;;;;;2.58;1.15;;;22.60;97.20;;;;;;1736880;28;20211;-72
2022/05/25 09:47:53;;;;;;;1.65;0.90;;;22.60;97.20;;;;;;1737167;28;20718;-72